Terminal Aerodrome Forecast
Issued by NWS Shreveport, LA

Home | Current Version | Previous Version | Text Only | Print | Product List | Glossary On
Versions: 1 2 3 4 5 6 7 8 9 10 11 12 13 14 15 16 17 18 19 20 21 22 23 24 25 26
000
FTUS44 KSHV 270500
TAFTXK
TAF
KTXK 270525Z 2706/2806 02006KT P6SM SCT040 OVC100
     FM271700 06010KT P6SM -SN SCT030 OVC060
     FM280100 07006KT P6SM BKN080=

USA.gov is the U.S. government's official web portal to all federal, state and local government web resources and services.